Saint-Lambert, Canada
Current Conditions -  °F | °C
As of 8:49 PM on Saturday 20 Dec 2014 (Local Time) from CYHU Reporting Station
Haze Haze  
Wind Chill: -4°   Ceiling: 19000
Heat Index:   Visibility: 2.5mi
Dew Point:   Wind: 5mph
Humidity: 85%   Direction: 350°N
Pressure: 30.38"   Gusts: NA
Location:  45.48°N, 73.5°W
Report Text: CYHU 210149Z AUTO 35004KT 2 1/2SM BR OVC190 M15/M17 A3038 RMK SLP289
Loading
Personal Weather Stations






























Interactive Weather Map New forecast layout! Learn more

10-Day Weather Forecast

Advertisements
Track Severe Weather on mobile